Time;durP1;ratioP1;P1;durP2;ratioP2;P2;SDS_P1;SDS_P2;PMS_P1;PMS_P2;Temp;Humidity;BMP_temperature;BMP_pressure;BME280_temperature;BME280_humidity;BME280_pressure;Samples;Min_cycle;Max_cycle;Signal;HPM_P1;HPM_P2
2023/12/16 00:00:11;;;;;;;3.80;1.58;;;9.30;99.90;;;;;;4944261;29;20085;-93
2023/12/16 00:02:38;;;;;;;1.90;1.20;;;9.30;99.90;;;;;;4945776;29;20028;-94
2023/12/16 00:05:04;;;;;;;1.55;1.08;;;9.40;99.90;;;;;;4920160;29;20078;-93
2023/12/16 00:07:30;;;;;;;3.00;0.80;;;9.30;99.90;;;;;;4944467;29;20048;-93
2023/12/16 00:09:56;;;;;;;1.00;0.90;;;9.30;99.90;;;;;;4979613;28;20024;-91
2023/12/16 00:12:22;;;;;;;1.52;0.90;;;9.40;99.90;;;;;;4980285;28;20079;-93
2023/12/16 00:14:47;;;;;;;1.25;1.15;;;9.40;99.90;;;;;;4951152;29;20042;-94
2023/12/16 00:17:13;;;;;;;2.35;1.10;;;9.40;99.90;;;;;;4941128;29;20057;-93
2023/12/16 00:19:39;;;;;;;1.90;1.35;;;9.40;99.90;;;;;;4940043;29;20036;-93
2023/12/16 00:22:04;;;;;;;3.63;1.40;;;9.40;99.90;;;;;;4941690;29;20070;-93
2023/12/16 00:24:32;;;;;;;7.47;1.95;;;9.40;99.90;;;;;;4957913;29;20401;-93
2023/12/16 00:26:58;;;;;;;2.35;1.35;;;9.50;99.90;;;;;;4941319;29;20486;-93
2023/12/16 00:29:23;;;;;;;5.10;2.20;;;9.50;99.90;;;;;;4939031;29;20047;-95
2023/12/16 00:31:49;;;;;;;2.65;1.55;;;9.50;99.90;;;;;;4944260;29;20050;-93
2023/12/16 00:34:15;;;;;;;2.95;1.35;;;9.50;99.90;;;;;;4927145;29;20031;-93
2023/12/16 00:36:43;;;;;;;1.88;1.60;;;9.50;99.90;;;;;;4937696;29;20026;-91
2023/12/16 00:39:09;;;;;;;2.80;1.63;;;9.60;99.90;;;;;;4938445;29;20505;-91
2023/12/16 00:41:36;;;;;;;2.60;2.10;;;9.50;99.90;;;;;;4937998;29;20039;-93
2023/12/16 00:44:01;;;;;;;3.10;2.15;;;9.60;99.90;;;;;;4939719;29;20032;-92
2023/12/16 00:46:27;;;;;;;3.92;2.60;;;9.60;99.90;;;;;;4939483;29;20046;-90
2023/12/16 00:48:53;;;;;;;3.67;2.25;;;9.60;99.90;;;;;;4923866;29;20067;-92
2023/12/16 00:51:22;;;;;;;5.28;2.17;;;9.60;99.90;;;;;;4939392;29;20375;-91
2023/12/16 00:53:47;;;;;;;3.75;2.00;;;9.60;99.90;;;;;;4939522;29;20024;-92
2023/12/16 00:56:13;;;;;;;4.43;2.30;;;9.60;99.90;;;;;;4938696;29;20038;-92
2023/12/16 00:58:39;;;;;;;2.08;1.77;;;9.50;99.90;;;;;;4938410;29;20035;-92
2023/12/16 01:01:05;;;;;;;5.28;2.38;;;9.50;99.90;;;;;;4938075;29;20040;-91
2023/12/16 01:03:31;;;;;;;3.13;1.83;;;9.50;99.90;;;;;;4937676;29;20566;-92
2023/12/16 01:05:57;;;;;;;4.43;2.10;;;9.50;99.90;;;;;;4921421;29;20036;-91
2023/12/16 01:08:22;;;;;;;2.75;2.20;;;9.50;99.90;;;;;;4937144;29;20046;-93
2023/12/16 01:10:48;;;;;;;2.72;2.38;;;9.50;99.90;;;;;;4937408;29;20389;-92
2023/12/16 01:13:14;;;;;;;4.47;3.10;;;9.50;99.90;;;;;;4936954;29;20630;-91
2023/12/16 01:15:39;;;;;;;4.18;2.70;;;9.50;99.90;;;;;;4937366;29;20409;-93
2023/12/16 01:18:05;;;;;;;3.88;2.90;;;9.50;99.90;;;;;;4938805;29;20030;-92
2023/12/16 01:20:31;;;;;;;3.20;2.90;;;9.50;99.90;;;;;;4938449;29;20035;-92
2023/12/16 01:22:57;;;;;;;3.50;3.20;;;9.50;99.90;;;;;;4925772;29;20041;-93
2023/12/16 01:25:22;;;;;;;6.35;3.05;;;9.50;99.90;;;;;;4944480;29;20130;-93
2023/12/16 01:27:48;;;;;;;6.93;4.22;;;9.50;99.90;;;;;;4943134;29;20020;-93
2023/12/16 01:30:14;;;;;;;3.78;3.15;;;9.50;99.90;;;;;;4937274;29;20024;-92
2023/12/16 01:32:40;;;;;;;5.15;3.20;;;9.50;99.90;;;;;;4936542;29;20118;-93
2023/12/16 01:35:06;;;;;;;4.95;2.97;;;9.50;99.90;;;;;;4937189;29;20038;-92
2023/12/16 01:37:32;;;;;;;2.83;2.60;;;9.50;99.90;;;;;;4921123;29;20027;-92
2023/12/16 01:39:59;;;;;;;2.80;2.47;;;9.40;99.90;;;;;;4937246;29;20362;-93
2023/12/16 01:42:26;;;;;;;3.33;3.03;;;9.40;99.90;;;;;;4936300;29;20115;-92
2023/12/16 01:44:51;;;;;;;3.35;2.83;;;9.40;99.90;;;;;;4937308;29;20028;-92
2023/12/16 01:47:17;;;;;;;3.08;2.78;;;9.40;99.90;;;;;;4936502;29;20474;-91
2023/12/16 01:49:44;;;;;;;3.20;2.65;;;9.40;99.90;;;;;;4935826;29;20039;-93
2023/12/16 01:52:11;;;;;;;3.08;2.75;;;9.40;99.90;;;;;;4936078;29;20127;-93
2023/12/16 01:54:38;;;;;;;3.38;2.88;;;9.40;99.90;;;;;;4921037;29;20058;-93
2023/12/16 01:57:04;;;;;;;2.95;2.60;;;9.40;99.90;;;;;;4937583;29;20028;-93
2023/12/16 01:59:30;;;;;;;2.58;2.38;;;9.40;99.90;;;;;;4936554;29;20040;-94
2023/12/16 02:01:57;;;;;;;2.85;2.13;;;9.40;99.90;;;;;;4952569;28;20162;-94
2023/12/16 02:04:22;;;;;;;4.63;2.20;;;9.30;99.90;;;;;;4939581;29;20488;-93
2023/12/16 02:06:48;;;;;;;2.35;2.13;;;9.30;99.90;;;;;;4939333;29;20041;-93
2023/12/16 02:09:16;;;;;;;2.10;1.90;;;9.30;99.90;;;;;;4940633;29;20027;-93
2023/12/16 02:11:41;;;;;;;1.10;1.10;;;9.40;99.90;;;;;;4946580;29;20031;-92
2023/12/16 02:14:07;;;;;;;1.30;1.20;;;9.40;99.90;;;;;;4950577;29;20063;-92
2023/12/16 02:16:33;;;;;;;0.70;0.70;;;9.40;99.90;;;;;;4945866;29;20082;-93
2023/12/16 02:19:00;;;;;;;1.20;1.10;;;9.50;99.90;;;;;;4940908;29;20057;-94
2023/12/16 02:21:25;;;;;;;1.00;1.00;;;9.50;99.90;;;;;;4940418;29;20090;-93
2023/12/16 02:23:51;;;;;;;1.15;1.05;;;9.50;99.90;;;;;;4940200;29;20071;-93
2023/12/16 02:26:17;;;;;;;1.65;1.50;;;9.50;99.90;;;;;;4939357;29;20027;-93
2023/12/16 02:28:43;;;;;;;2.13;1.80;;;9.50;99.90;;;;;;4939803;29;20389;-94
2023/12/16 02:31:09;;;;;;;2.55;1.50;;;9.50;99.90;;;;;;4939866;29;20106;-93
2023/12/16 02:33:34;;;;;;;2.20;2.00;;;9.50;99.90;;;;;;4940264;29;20194;-94
2023/12/16 02:36:00;;;;;;;1.70;1.60;;;9.50;99.90;;;;;;4940524;29;20072;-93
2023/12/16 02:38:26;;;;;;;1.60;1.50;;;9.50;99.90;;;;;;4956238;28;20023;-91
2023/12/16 02:40:52;;;;;;;2.08;1.50;;;9.60;99.90;;;;;;4962095;29;20058;-93
2023/12/16 02:43:18;;;;;;;1.65;1.55;;;9.50;99.90;;;;;;4954416;29;20042;-92
2023/12/16 02:45:43;;;;;;;1.40;1.30;;;9.50;99.90;;;;;;4940358;29;20031;-93
2023/12/16 02:48:09;;;;;;;2.78;1.50;;;9.50;99.90;;;;;;4941053;29;20027;-93
2023/12/16 02:50:35;;;;;;;1.10;1.00;;;9.60;99.90;;;;;;4938854;29;20043;-93
2023/12/16 02:53:00;;;;;;;0.90;0.90;;;9.60;99.90;;;;;;4938304;29;20031;-92
2023/12/16 02:55:26;;;;;;;0.90;0.90;;;9.60;99.90;;;;;;4939138;29;20055;-93
2023/12/16 02:57:52;;;;;;;0.80;0.80;;;9.60;99.90;;;;;;4939598;29;20400;-93
2023/12/16 03:00:18;;;;;;;1.35;1.25;;;9.60;99.90;;;;;;4939816;29;20126;-92
2023/12/16 03:02:43;;;;;;;1.30;1.20;;;9.60;99.90;;;;;;4939773;29;20107;-93
2023/12/16 03:05:09;;;;;;;1.80;1.70;;;9.60;99.90;;;;;;4939989;29;20035;-93
2023/12/16 03:07:36;;;;;;;1.98;1.40;;;9.60;99.90;;;;;;4939490;29;20053;-93
2023/12/16 03:10:02;;;;;;;1.70;1.60;;;9.60;99.90;;;;;;4945826;29;20031;-92
2023/12/16 03:12:28;;;;;;;1.85;1.75;;;9.60;99.90;;;;;;4946376;29;20469;-92
2023/12/16 03:14:54;;;;;;;1.80;1.70;;;9.60;99.90;;;;;;4945083;29;20043;-92
2023/12/16 03:17:19;;;;;;;1.40;1.30;;;9.60;99.90;;;;;;4938740;29;20028;-92
2023/12/16 03:19:45;;;;;;;1.88;1.08;;;9.60;99.90;;;;;;4938952;29;20075;-92
2023/12/16 03:22:11;;;;;;;1.35;1.25;;;9.60;99.90;;;;;;4938709;29;20125;-92
2023/12/16 03:24:36;;;;;;;1.20;1.10;;;9.60;99.90;;;;;;4938524;29;20024;-93
2023/12/16 03:27:02;;;;;;;1.35;1.25;;;9.60;99.90;;;;;;4938272;29;20035;-93
2023/12/16 03:29:28;;;;;;;1.58;1.00;;;9.60;99.90;;;;;;4938935;29;20074;-93
2023/12/16 03:31:55;;;;;;;1.27;1.20;;;9.60;99.90;;;;;;4940394;29;20042;-93
2023/12/16 03:34:21;;;;;;;1.85;1.05;;;9.60;99.90;;;;;;4942875;29;20027;-92
2023/12/16 03:36:47;;;;;;;0.90;0.90;;;9.60;99.90;;;;;;4938661;29;20396;-93
2023/12/16 03:39:13;;;;;;;0.75;0.75;;;9.70;99.90;;;;;;4937987;29;20047;-93
2023/12/16 03:41:38;;;;;;;1.55;0.98;;;9.70;99.90;;;;;;4938301;28;20026;-91
2023/12/16 03:44:04;;;;;;;0.75;0.75;;;9.70;99.90;;;;;;4940968;29;20393;-94
2023/12/16 03:46:30;;;;;;;1.05;0.70;;;9.70;99.90;;;;;;4941786;29;20028;-93
2023/12/16 03:48:56;;;;;;;0.80;0.70;;;9.70;99.90;;;;;;4941765;29;20037;-93
2023/12/16 03:51:23;;;;;;;1.00;0.73;;;9.70;99.90;;;;;;4941996;29;20058;-90
2023/12/16 03:53:49;;;;;;;0.90;0.90;;;9.70;99.90;;;;;;4942849;29;20059;-92
2023/12/16 03:56:15;;;;;;;0.70;0.70;;;9.70;99.90;;;;;;4945919;29;20035;-92
2023/12/16 03:58:41;;;;;;;0.82;0.82;;;9.70;99.90;;;;;;4966284;29;20031;-92
2023/12/16 04:01:13;;;;;;;0.68;0.68;;;9.70;99.90;;;;;;4941539;29;20028;-92
2023/12/16 04:03:42;;;;;;;1.23;0.80;;;9.70;99.90;;;;;;4946944;29;20031;-92
2023/12/16 04:06:12;;;;;;;0.57;0.57;;;9.70;99.90;;;;;;4949427;29;20062;-92
2023/12/16 04:08:38;;;;;;;0.60;0.60;;;9.70;99.90;;;;;;4949631;29;20030;-91
2023/12/16 04:11:04;;;;;;;0.57;0.50;;;9.70;99.90;;;;;;4950990;29;20103;-92
2023/12/16 04:13:30;;;;;;;0.60;0.60;;;9.70;99.90;;;;;;4951066;29;20055;-92
2023/12/16 04:15:56;;;;;;;0.50;0.50;;;9.70;99.90;;;;;;4950273;29;20027;-92
2023/12/16 04:18:23;;;;;;;0.70;0.70;;;9.70;99.90;;;;;;4948516;29;20027;-93
2023/12/16 04:20:48;;;;;;;0.93;0.80;;;9.70;99.90;;;;;;4945429;29;20140;-94
2023/12/16 04:23:14;;;;;;;0.77;0.57;;;9.70;99.90;;;;;;4943857;29;20158;-92
2023/12/16 04:25:40;;;;;;;0.75;0.65;;;9.70;99.90;;;;;;4943915;29;20051;-92
2023/12/16 04:28:06;;;;;;;0.50;0.50;;;9.70;99.90;;;;;;4927401;29;20037;-91
2023/12/16 04:30:32;;;;;;;0.98;0.63;;;9.70;99.90;;;;;;4944139;29;20099;-94
2023/12/16 04:32:58;;;;;;;0.55;0.55;;;9.70;99.90;;;;;;4949339;29;20027;-93
2023/12/16 04:35:24;;;;;;;0.50;0.50;;;9.70;99.90;;;;;;4948891;29;20027;-93
2023/12/16 04:37:49;;;;;;;1.08;0.70;;;9.60;99.90;;;;;;4951180;29;20030;-92
2023/12/16 04:40:15;;;;;;;2.95;1.30;;;9.60;99.90;;;;;;4952313;29;20045;-94
2023/12/16 04:42:42;;;;;;;0.50;0.50;;;9.60;99.90;;;;;;4954056;29;20082;-93
2023/12/16 04:45:08;;;;;;;0.57;0.57;;;9.60;99.90;;;;;;4953380;29;20031;-93
2023/12/16 04:47:37;;;;;;;0.70;0.70;;;9.60;99.90;;;;;;4950901;29;20051;-93
2023/12/16 04:50:03;;;;;;;0.57;0.57;;;9.50;99.90;;;;;;4950790;29;20178;-94
2023/12/16 04:52:29;;;;;;;0.93;0.50;;;9.50;99.90;;;;;;4948491;29;20031;-94
2023/12/16 04:54:54;;;;;;;1.65;0.50;;;9.50;99.90;;;;;;4943772;29;20127;-93
2023/12/16 04:57:20;;;;;;;0.50;0.50;;;9.50;99.90;;;;;;4942118;29;20050;-93
2023/12/16 04:59:46;;;;;;;0.52;0.52;;;9.40;99.90;;;;;;4941782;29;20094;-93
2023/12/16 05:02:12;;;;;;;1.00;0.50;;;9.30;99.90;;;;;;4942247;29;20145;-94
2023/12/16 05:04:37;;;;;;;0.50;0.50;;;9.30;99.90;;;;;;4942564;29;20041;-94
2023/12/16 05:07:03;;;;;;;0.35;0.35;;;9.30;99.90;;;;;;4941629;29;20492;-93
2023/12/16 05:09:32;;;;;;;0.60;0.60;;;9.30;99.90;;;;;;4941811;29;20055;-93
2023/12/16 05:11:59;;;;;;;0.63;0.50;;;9.20;99.90;;;;;;4939099;28;20099;-94
2023/12/16 05:14:25;;;;;;;1.95;1.05;;;9.20;99.90;;;;;;4944835;28;20030;-93
2023/12/16 05:16:50;;;;;;;0.70;0.50;;;9.20;99.90;;;;;;4936422;29;20063;-92
2023/12/16 05:19:16;;;;;;;1.45;0.40;;;9.20;99.90;;;;;;4923676;29;20092;-93
2023/12/16 05:21:42;;;;;;;0.50;0.50;;;9.10;99.90;;;;;;4922744;29;20063;-93
2023/12/16 05:24:07;;;;;;;1.13;0.40;;;9.10;99.90;;;;;;4923332;29;20027;-93
2023/12/16 05:26:33;;;;;;;1.90;0.50;;;9.10;99.90;;;;;;4923781;29;20164;-92
2023/12/16 05:28:59;;;;;;;1.00;0.50;;;9.10;99.90;;;;;;4922153;29;20024;-92
2023/12/16 05:31:24;;;;;;;0.85;0.40;;;9.00;99.90;;;;;;4939087;29;20029;-94
2023/12/16 05:33:50;;;;;;;0.50;0.32;;;9.10;99.90;;;;;;4923616;29;20110;-93
2023/12/16 05:36:16;;;;;;;0.68;0.60;;;9.00;99.90;;;;;;4923117;29;20545;-93
2023/12/16 05:38:41;;;;;;;0.75;0.45;;;9.10;99.90;;;;;;4928238;29;20090;-93
2023/12/16 05:41:07;;;;;;;2.50;0.77;;;9.00;99.90;;;;;;4933158;29;20036;-93
2023/12/16 05:43:33;;;;;;;1.10;0.57;;;9.10;99.90;;;;;;4932686;29;20043;-94
2023/12/16 05:45:59;;;;;;;2.17;0.68;;;9.00;99.90;;;;;;4924067;29;20031;-94
2023/12/16 05:48:25;;;;;;;0.88;0.60;;;9.00;99.90;;;;;;4924548;29;20446;-95
2023/12/16 05:50:50;;;;;;;1.65;0.57;;;9.00;99.90;;;;;;4937928;29;20067;-94
2023/12/16 05:53:16;;;;;;;0.30;0.30;;;9.00;99.90;;;;;;4947885;29;20035;-94
2023/12/16 05:55:47;;;;;;;1.75;0.88;;;9.00;99.90;;;;;;4945827;29;20023;-93
2023/12/16 05:58:12;;;;;;;2.72;0.68;;;9.00;99.90;;;;;;4943294;29;20188;-95
2023/12/16 06:00:38;;;;;;;3.38;0.65;;;8.90;99.90;;;;;;4944126;29;20039;-94
2023/12/16 06:03:04;;;;;;;2.20;0.80;;;8.90;99.90;;;;;;4946565;29;20034;-95
2023/12/16 06:05:30;;;;;;;1.88;0.65;;;8.90;99.90;;;;;;4946507;29;20023;-94
2023/12/16 06:07:56;;;;;;;1.17;0.80;;;8.80;99.90;;;;;;4947586;29;20062;-94
2023/12/16 06:10:22;;;;;;;0.88;0.68;;;8.80;99.90;;;;;;4948855;29;20038;-95
2023/12/16 06:12:48;;;;;;;1.45;0.95;;;8.80;99.90;;;;;;4948015;29;20046;-94
2023/12/16 06:15:13;;;;;;;1.98;0.70;;;8.70;99.90;;;;;;4945966;29;20110;-93
2023/12/16 06:17:39;;;;;;;1.40;0.65;;;8.70;99.90;;;;;;4948547;29;20030;-95
2023/12/16 06:20:05;;;;;;;1.60;0.57;;;8.70;99.90;;;;;;4947038;29;20039;-94
2023/12/16 06:22:31;;;;;;;0.43;0.30;;;8.70;99.90;;;;;;4945891;29;20142;-94
2023/12/16 06:24:58;;;;;;;2.50;0.60;;;8.60;99.90;;;;;;4945785;29;20079;-95
2023/12/16 06:27:23;;;;;;;2.72;0.52;;;8.60;99.90;;;;;;4946371;29;20031;-94
2023/12/16 06:29:49;;;;;;;0.80;0.52;;;8.60;99.90;;;;;;4947846;29;20030;-94
2023/12/16 06:32:15;;;;;;;0.82;0.60;;;8.60;99.90;;;;;;4947912;29;20038;-94
2023/12/16 06:34:41;;;;;;;0.90;0.60;;;8.50;99.90;;;;;;4946566;29;20028;-94
2023/12/16 06:37:07;;;;;;;0.65;0.60;;;8.50;99.90;;;;;;4945037;29;20074;-94
2023/12/16 06:39:33;;;;;;;1.13;0.50;;;8.50;99.90;;;;;;4947560;29;20043;-94
2023/12/16 06:41:58;;;;;;;1.08;0.60;;;8.40;99.90;;;;;;4948056;29;20030;-94
2023/12/16 06:44:24;;;;;;;1.05;0.70;;;8.40;99.90;;;;;;4948562;29;20094;-95
2023/12/16 06:46:50;;;;;;;1.42;0.90;;;8.30;99.90;;;;;;4947130;29;20023;-95
2023/12/16 06:49:15;;;;;;;1.25;0.98;;;8.30;99.90;;;;;;4947972;29;20035;-95
2023/12/16 06:51:41;;;;;;;3.10;0.95;;;8.30;99.90;;;;;;4948621;29;20051;-94
2023/12/16 06:54:07;;;;;;;1.17;0.75;;;8.30;99.90;;;;;;4944336;29;20031;-94
2023/12/16 06:56:32;;;;;;;5.38;1.20;;;8.30;99.90;;;;;;4950557;29;20029;-96
2023/12/16 06:58:58;;;;;;;0.82;0.80;;;8.30;99.90;;;;;;4950850;29;20031;-94
2023/12/16 07:01:25;;;;;;;0.98;0.47;;;8.10;99.90;;;;;;4951566;29;20038;-94
2023/12/16 07:03:50;;;;;;;2.10;1.05;;;8.10;99.90;;;;;;4954037;29;20023;-93
2023/12/16 07:06:20;;;;;;;1.48;0.90;;;8.00;99.90;;;;;;4944244;29;20516;-93
2023/12/16 07:08:46;;;;;;;2.17;1.08;;;8.10;99.90;;;;;;4945878;29;20512;-93
2023/12/16 07:11:12;;;;;;;0.93;0.90;;;8.10;99.90;;;;;;4944624;29;20027;-94
2023/12/16 07:13:38;;;;;;;5.80;3.88;;;8.20;99.90;;;;;;4944145;29;20024;-92
2023/12/16 07:16:04;;;;;;;1.27;1.15;;;8.30;99.90;;;;;;4944666;29;20035;-96
2023/12/16 07:18:30;;;;;;;2.25;1.10;;;8.40;99.90;;;;;;4945312;29;20019;-93
2023/12/16 07:20:56;;;;;;;2.28;1.42;;;8.50;99.90;;;;;;4947041;29;20035;-94
2023/12/16 07:23:23;;;;;;;1.38;0.80;;;8.60;99.90;;;;;;4946216;29;20031;-95
2023/12/16 07:26:06;;;;;;;1.98;1.17;;;8.70;99.90;;;;;;4956926;29;20034;-94
2023/12/16 07:28:33;;;;;;;0.73;0.60;;;8.70;99.90;;;;;;4954836;28;20110;-95
2023/12/16 07:30:59;;;;;;;0.82;0.70;;;8.70;99.90;;;;;;4945967;29;20034;-93
2023/12/16 07:33:25;;;;;;;0.93;0.80;;;8.70;99.90;;;;;;4943076;29;20027;-95
2023/12/16 07:35:51;;;;;;;1.52;0.77;;;8.70;99.90;;;;;;4947789;29;20406;-93
2023/12/16 07:38:19;;;;;;;1.10;1.00;;;8.70;99.90;;;;;;4943596;29;20025;-96
2023/12/16 07:40:45;;;;;;;1.67;1.10;;;8.70;99.90;;;;;;4942076;29;20365;-93
2023/12/16 07:43:11;;;;;;;2.03;0.80;;;8.70;99.90;;;;;;4959731;29;20027;-94
2023/12/16 07:45:36;;;;;;;2.03;1.20;;;8.70;99.90;;;;;;4951375;29;20081;-95
2023/12/16 07:48:02;;;;;;;1.45;1.00;;;8.60;99.90;;;;;;4948177;29;20380;-93
2023/12/16 07:50:28;;;;;;;1.10;1.00;;;8.60;99.90;;;;;;4956246;28;20185;-90
2023/12/16 07:52:54;;;;;;;1.33;1.10;;;8.60;99.90;;;;;;4973290;28;20035;-91
2023/12/16 07:55:21;;;;;;;1.08;0.90;;;8.60;99.90;;;;;;4941123;29;20023;-92
2023/12/16 07:57:46;;;;;;;1.10;1.00;;;8.50;99.90;;;;;;4941840;29;20127;-92
2023/12/16 08:00:12;;;;;;;1.40;0.90;;;8.50;99.90;;;;;;4921820;29;20191;-93
2023/12/16 08:02:38;;;;;;;1.00;0.90;;;8.50;99.90;;;;;;4925076;29;20031;-96
2023/12/16 08:05:04;;;;;;;1.25;1.15;;;8.40;99.90;;;;;;4939648;29;20015;-95
2023/12/16 08:07:30;;;;;;;0.80;0.80;;;8.40;99.90;;;;;;4935757;29;20023;-94
2023/12/16 08:09:56;;;;;;;1.83;1.50;;;8.30;99.90;;;;;;4938663;29;20081;-94
2023/12/16 08:12:21;;;;;;;1.73;1.38;;;8.30;99.90;;;;;;4967517;28;20034;-92
2023/12/16 08:14:47;;;;;;;1.70;1.08;;;8.30;99.90;;;;;;4951871;29;20326;-94
2023/12/16 08:17:13;;;;;;;1.90;1.40;;;8.20;99.90;;;;;;4967669;29;20397;-93
2023/12/16 08:19:39;;;;;;;2.35;1.38;;;8.20;99.90;;;;;;4957867;29;20051;-94
2023/12/16 08:22:04;;;;;;;1.73;1.60;;;8.20;99.90;;;;;;4954127;29;20102;-93
2023/12/16 08:24:33;;;;;;;3.75;2.25;;;8.20;99.90;;;;;;4950613;29;20188;-95
2023/12/16 08:26:58;;;;;;;2.83;2.03;;;8.30;99.90;;;;;;4947171;29;20138;-93
2023/12/16 08:29:24;;;;;;;2.88;2.53;;;8.30;99.90;;;;;;4945492;29;20051;-93
2023/12/16 08:31:50;;;;;;;4.93;2.45;;;8.40;99.90;;;;;;4951984;29;20029;-94
2023/12/16 08:34:19;;;;;;;3.88;2.72;;;8.40;99.90;;;;;;4942787;29;20276;-94
2023/12/16 08:36:46;;;;;;;2.78;2.17;;;8.50;99.90;;;;;;4941887;29;20020;-94
2023/12/16 08:39:24;;;;;;;3.60;2.50;;;8.50;99.90;;;;;;4948578;29;20058;-92
2023/12/16 08:41:50;;;;;;;2.95;2.15;;;8.60;99.90;;;;;;4949891;29;20020;-94
2023/12/16 08:44:16;;;;;;;4.35;2.90;;;8.60;99.90;;;;;;4941766;29;20491;-93
2023/12/16 08:46:42;;;;;;;2.95;2.47;;;8.60;99.90;;;;;;4945618;29;20031;-94
2023/12/16 08:49:08;;;;;;;4.05;2.80;;;8.60;99.90;;;;;;4948223;29;20090;-94
2023/12/16 08:51:34;;;;;;;4.25;2.80;;;8.60;99.90;;;;;;4924863;29;20050;-92
2023/12/16 08:54:00;;;;;;;3.10;2.40;;;8.60;99.90;;;;;;4921740;29;20114;-92
2023/12/16 08:56:26;;;;;;;3.78;2.90;;;8.60;99.90;;;;;;4921572;29;20027;-94
2023/12/16 08:58:52;;;;;;;5.45;2.72;;;8.60;99.90;;;;;;4921839;29;20020;-90
2023/12/16 09:01:17;;;;;;;2.90;2.25;;;8.70;99.90;;;;;;4925522;29;20031;-92
2023/12/16 09:03:43;;;;;;;3.30;2.30;;;8.70;99.90;;;;;;4922602;29;20029;-93
2023/12/16 09:06:09;;;;;;;3.63;2.83;;;8.70;99.90;;;;;;4921540;29;20165;-93
2023/12/16 09:08:35;;;;;;;3.10;2.72;;;8.70;99.90;;;;;;4924120;29;20024;-92
2023/12/16 09:11:01;;;;;;;3.90;2.50;;;8.80;99.90;;;;;;4927624;29;20016;-94
2023/12/16 09:13:27;;;;;;;3.15;2.15;;;8.80;99.90;;;;;;4924059;29;20032;-93
2023/12/16 09:15:52;;;;;;;3.10;2.30;;;8.80;99.90;;;;;;4920592;29;20028;-94
2023/12/16 09:18:18;;;;;;;3.22;2.20;;;8.80;99.90;;;;;;4919791;29;20027;-94
2023/12/16 09:20:44;;;;;;;2.80;2.13;;;8.90;99.90;;;;;;4934761;29;20035;-92
2023/12/16 09:23:10;;;;;;;3.83;2.13;;;8.90;99.90;;;;;;4920717;29;20083;-95
2023/12/16 09:25:35;;;;;;;5.30;2.25;;;8.90;99.90;;;;;;4920400;29;20028;-93
2023/12/16 09:28:01;;;;;;;3.25;2.10;;;9.00;99.90;;;;;;4915924;29;20056;-93
2023/12/16 09:30:27;;;;;;;2.38;1.90;;;9.00;99.90;;;;;;4929657;29;20078;-93
2023/12/16 09:32:53;;;;;;;3.03;1.95;;;9.00;99.90;;;;;;4929461;29;20414;-94
2023/12/16 09:35:18;;;;;;;2.35;1.95;;;9.00;99.90;;;;;;4922137;29;20027;-94
2023/12/16 09:37:44;;;;;;;2.83;2.03;;;9.10;99.90;;;;;;4912711;29;20072;-91
2023/12/16 09:40:11;;;;;;;4.30;2.10;;;9.10;99.90;;;;;;4938309;29;20043;-92
2023/12/16 09:42:36;;;;;;;3.20;2.30;;;9.10;99.90;;;;;;4920212;29;20118;-92
2023/12/16 09:45:03;;;;;;;2.10;1.90;;;9.10;99.90;;;;;;4919750;29;20051;-92
2023/12/16 09:47:29;;;;;;;3.50;2.25;;;9.10;99.90;;;;;;4919847;29;20042;-93
2023/12/16 09:49:59;;;;;;;4.15;2.40;;;9.10;99.90;;;;;;4920514;28;20054;-92
2023/12/16 09:52:27;;;;;;;4.32;2.50;;;9.10;99.90;;;;;;4945545;29;20059;-93
2023/12/16 09:54:54;;;;;;;2.83;1.58;;;9.10;99.90;;;;;;4935097;29;20027;-94
2023/12/16 09:57:23;;;;;;;6.28;2.38;;;9.10;99.90;;;;;;4938689;29;20465;-92
2023/12/16 09:59:51;;;;;;;2.55;2.30;;;9.10;99.90;;;;;;4959767;29;20035;-93
2023/12/16 10:02:30;;;;;;;4.20;1.95;;;9.10;99.90;;;;;;4956181;29;20030;-93
2023/12/16 10:05:00;;;;;;;3.25;1.90;;;9.10;99.90;;;;;;4958120;29;20073;-93
2023/12/16 10:07:26;;;;;;;3.28;1.70;;;9.20;99.90;;;;;;4964053;29;20078;-90
2023/12/16 10:09:52;;;;;;;2.63;1.85;;;9.10;99.90;;;;;;4973091;29;20015;-92
2023/12/16 10:12:21;;;;;;;3.97;1.98;;;9.10;99.90;;;;;;4956190;29;20035;-95
2023/12/16 10:14:51;;;;;;;2.63;1.80;;;9.20;99.90;;;;;;4958975;29;20027;-94
2023/12/16 10:17:19;;;;;;;1.93;1.57;;;9.10;99.90;;;;;;4955054;29;20042;-94
2023/12/16 10:19:48;;;;;;;2.38;1.75;;;9.20;99.90;;;;;;4970837;28;20027;-92
2023/12/16 10:22:18;;;;;;;1.92;1.30;;;9.10;99.90;;;;;;4962405;28;20023;-90
2023/12/16 10:24:47;;;;;;;2.67;1.58;;;9.20;99.90;;;;;;4962561;28;20071;-89
2023/12/16 10:27:15;;;;;;;1.65;1.55;;;9.20;99.90;;;;;;4954521;29;20035;-94
2023/12/16 10:29:41;;;;;;;2.83;1.55;;;9.20;99.90;;;;;;4948731;29;20032;-93
2023/12/16 10:32:10;;;;;;;2.95;1.52;;;9.20;99.90;;;;;;4951788;28;20063;-93
2023/12/16 10:34:37;;;;;;;1.35;1.23;;;9.20;99.90;;;;;;4950700;29;20059;-91
2023/12/16 10:37:05;;;;;;;3.40;1.20;;;9.20;99.90;;;;;;4951476;29;20040;-93
2023/12/16 10:39:34;;;;;;;1.95;1.30;;;9.20;99.90;;;;;;4951466;29;20051;-93
2023/12/16 10:42:00;;;;;;;2.60;1.40;;;9.20;99.90;;;;;;4954458;29;20120;-95
2023/12/16 10:44:26;;;;;;;2.85;1.52;;;9.30;99.90;;;;;;4952153;29;20032;-94
2023/12/16 10:46:55;;;;;;;3.78;1.58;;;9.30;99.90;;;;;;4952258;29;20030;-93
2023/12/16 10:49:29;;;;;;;1.63;1.50;;;9.30;99.90;;;;;;4953019;29;20035;-94
2023/12/16 10:52:06;;;;;;;2.25;1.50;;;9.30;99.90;;;;;;4954246;29;20048;-94
2023/12/16 10:54:43;;;;;;;2.35;1.40;;;9.30;99.90;;;;;;4955465;29;20027;-94
2023/12/16 10:57:21;;;;;;;5.82;1.80;;;9.30;99.90;;;;;;4952082;29;20048;-93
2023/12/16 10:59:59;;;;;;;4.78;1.20;;;9.30;99.90;;;;;;4952034;29;20067;-94
2023/12/16 11:02:31;;;;;;;1.42;1.13;;;9.40;99.90;;;;;;4950048;29;20031;-94
2023/12/16 11:05:07;;;;;;;1.50;1.00;;;9.60;99.90;;;;;;4935693;29;20036;-93
2023/12/16 11:07:38;;;;;;;1.60;1.38;;;10.00;99.90;;;;;;4948862;29;20024;-94
2023/12/16 11:10:05;;;;;;;;;;;10.30;99.90;;;;;;4951241;29;20100;-96
2023/12/16 11:12:36;;;;;;;1.00;0.88;;;10.90;99.90;;;;;;4950193;29;20356;-94
2023/12/16 11:15:05;;;;;;;1.95;1.13;;;11.60;99.90;;;;;;4945876;29;20132;-94
2023/12/16 11:17:53;;;;;;;0.98;0.70;;;12.20;99.90;;;;;;4944497;29;20027;-94
2023/12/16 11:20:25;;;;;;;2.65;1.73;;;13.00;99.90;;;;;;4941636;29;20048;-94
2023/12/16 11:22:52;;;;;;;1.13;1.00;;;13.70;99.90;;;;;;4944186;29;20036;-94
2023/12/16 11:25:20;;;;;;;1.80;0.80;;;14.30;99.90;;;;;;4946103;29;20051;-96
2023/12/16 11:27:52;;;;;;;0.80;0.80;;;14.80;99.90;;;;;;4945938;29;20023;-94
2023/12/16 11:30:20;;;;;;;1.80;0.80;;;15.20;99.90;;;;;;4943045;29;20055;-94
2023/12/16 11:32:54;;;;;;;0.95;0.70;;;15.50;99.90;;;;;;4940725;29;20028;-94
2023/12/16 11:35:36;;;;;;;0.80;0.70;;;15.70;99.90;;;;;;4937724;29;20035;-94
2023/12/16 11:38:02;;;;;;;2.35;0.90;;;16.00;99.90;;;;;;4939087;29;20062;-93
2023/12/16 11:40:46;;;;;;;0.70;0.70;;;16.10;99.90;;;;;;4937456;29;20036;-93
2023/12/16 11:43:13;;;;;;;0.70;0.55;;;16.10;99.90;;;;;;4936594;29;20028;-93
2023/12/16 11:45:46;;;;;;;0.70;0.60;;;16.20;99.90;;;;;;4936622;29;20195;-94
2023/12/16 11:48:14;;;;;;;0.55;0.43;;;16.30;99.90;;;;;;4936577;29;20613;-95
2023/12/16 11:50:41;;;;;;;1.63;0.70;;;16.30;99.90;;;;;;4936457;29;20044;-94
2023/12/16 11:53:15;;;;;;;0.73;0.63;;;16.00;99.90;;;;;;4920683;29;20548;-94
2023/12/16 11:55:41;;;;;;;0.80;0.60;;;15.80;99.90;;;;;;4936971;29;20030;-95
2023/12/16 11:58:07;;;;;;;0.90;0.70;;;15.70;99.90;;;;;;4935773;29;20119;-93
2023/12/16 12:00:33;;;;;;;0.73;0.73;;;15.70;99.90;;;;;;4935773;29;20036;-93
2023/12/16 12:03:02;;;;;;;0.60;0.50;;;15.60;99.90;;;;;;4935490;29;20027;-94
2023/12/16 12:05:29;;;;;;;2.78;0.47;;;15.30;99.90;;;;;;4939766;29;20644;-92
2023/12/16 12:07:55;;;;;;;1.48;0.63;;;15.30;99.90;;;;;;4941714;29;20039;-93
2023/12/16 12:10:24;;;;;;;0.40;0.40;;;15.50;99.90;;;;;;4939378;29;20039;-93
2023/12/16 12:12:53;;;;;;;0.60;0.60;;;15.60;99.90;;;;;;4938606;29;20023;-93
2023/12/16 12:15:19;;;;;;;1.08;0.60;;;15.50;99.90;;;;;;4938220;29;20032;-93
2023/12/16 12:17:45;;;;;;;0.50;0.40;;;15.20;99.90;;;;;;4938026;29;20477;-93
2023/12/16 12:20:13;;;;;;;2.25;0.60;;;14.80;99.90;;;;;;4938487;29;20055;-93
2023/12/16 12:22:40;;;;;;;0.60;0.52;;;14.60;99.90;;;;;;4938463;29;20039;-92
2023/12/16 12:25:06;;;;;;;0.40;0.40;;;14.60;99.90;;;;;;4938328;29;20517;-94
2023/12/16 12:27:32;;;;;;;1.85;0.40;;;14.60;99.90;;;;;;4938441;29;20063;-92
2023/12/16 12:30:04;;;;;;;3.03;0.93;;;14.70;99.90;;;;;;4939103;29;20082;-92
2023/12/16 12:32:31;;;;;;;1.45;0.80;;;14.70;99.90;;;;;;4940428;29;20051;-91
2023/12/16 12:35:06;;;;;;;0.70;0.55;;;14.70;99.90;;;;;;4957851;29;20035;-92
2023/12/16 12:37:39;;;;;;;0.65;0.55;;;14.80;99.90;;;;;;4938557;29;20055;-93
2023/12/16 12:40:18;;;;;;;0.85;0.55;;;14.90;99.90;;;;;;4938693;29;20028;-94
2023/12/16 12:43:02;;;;;;;0.60;0.60;;;15.20;99.90;;;;;;4938239;29;20071;-93
2023/12/16 12:45:36;;;;;;;1.55;0.65;;;15.80;99.90;;;;;;4939499;29;20134;-93
2023/12/16 12:48:13;;;;;;;0.70;0.70;;;16.30;99.90;;;;;;4942956;29;20086;-92
2023/12/16 12:50:41;;;;;;;1.00;0.73;;;16.90;98.80;;;;;;4961113;29;20063;-93
2023/12/16 12:53:17;;;;;;;1.35;0.60;;;17.40;97.70;;;;;;4955132;28;20036;-92